Aérodrome :
LOGIN :

S'inscrire | Disclaimer

   EN    FR    IT 

 










Légende :    VFR   VFR Marginal   IFR   IFR Intensif   IFR Très Intensif
Visi : 
Plafond : 
>= 8 km
>= 3000ft
5 à 8 km
1000 à 3000 ft
1500m à 5 km
500 à 1000 ft
800 à 1500m
200 à 500 ft
< 800m
< 200 ft
Symboles :   Orages  Brouillard  Fortes neiges  Fortes précipitations  Vent > 20 kt
SIGMETs :   Divers  Orages  Givrage  Turbulence  Onde Orograph.  Cendres Volcan.






- Altitude de l'aérodrome : 580 ft


LFOA - Avord

DERNIER METAR :
  • 190130Z AUTO 24009KT 9999 -RA SCT005 BKN009 OVC015 14/13 Q1014 TEMPO 2900 DZRA BECMG SCT010 SCT015TCU BKN050

METARs EXPIRÉS :
  • 190100Z AUTO 26007KT 9999 -RA OVC005/// ///TCU 14/14 Q1014 TEMPO 2900 DZRA
  • 190030Z AUTO 28006KT 8000 RA BKN005/// BKN009/// BKN066/// ///TCU 14/14 Q1014 TEMPO 2900 DZRA
  • 190000Z AUTO 25006KT 7000 +RA BKN004/// BKN016/// BKN042/// ///CB 14/13 Q1014 TEMPO 2900 DZRA BKN006
  • 182330Z AUTO 24010KT 6000 +RA SCT006/// SCT017/// BKN043/// ///CB 14/14 Q1015 TEMPO 2900 DZRA BKN006
  • 182300Z AUTO 25010KT 6000 +RA FEW009/// BKN060/// BKN070/// ///CB 14/14 Q1014 TEMPO 2900 DZRA BKN006
  • 182230Z AUTO 26013KT 7000 +RA FEW008/// SCT025/// BKN072/// ///CB 14/13 Q1014 TEMPO 2900 DZRA BKN006

TAF TAF LFOA
Valide du 18 à 21h jusqu'au 19 à 21h UTC


182000Z 1821/1921 26010KT 5000 RA SCT010 SCT015TCU BKN050 TX19/1915Z TN13/1905Z
PROB30
TEMPO 1823/1921 2900 DZRA BKN006



MET'MAP, la Météo Aéronautique d'un coup d'oeil ! - Copyright ORBIFLY Décembre 2007 - Disclaimer

ORBIFLY MET'MAP TEAM :

Programmation & Développement : Alexandra Zaïnal
Sur une idée originale de : Baudouin d'Aumeries
Assistance à la programmation : Marc-Olivier Méhu
Soutien technique & logistique : Manuel Goepfert

Contact : metmap@orbifly.com




SOURCES & CREDITS :

   NOAA